Time;durP1;ratioP1;P1;durP2;ratioP2;P2;SDS_P1;SDS_P2;PMS_P1;PMS_P2;Temp;Humidity;BMP_temperature;BMP_pressure;BME280_temperature;BME280_humidity;BME280_pressure;Samples;Min_cycle;Max_cycle;Signal;HPM_P1;HPM_P2
2022/04/02 00:01:56;;;;;;;9.03;3.30;;;1.30;82.00;;;;;;5088753;28;20224;-84
2022/04/02 00:04:23;;;;;;;6.37;1.87;;;1.20;82.10;;;;;;5086992;28;20993;-85
2022/04/02 00:06:50;;;;;;;5.23;2.93;;;1.20;82.00;;;;;;5072221;28;20256;-84
2022/04/02 00:09:17;;;;;;;3.67;1.80;;;1.20;82.00;;;;;;5087422;28;20299;-84
2022/04/02 00:11:45;;;;;;;3.33;1.90;;;1.20;82.20;;;;;;5088264;28;20232;-85
2022/04/02 00:14:14;;;;;;;3.50;1.87;;;1.20;82.50;;;;;;5074375;28;20221;-84
2022/04/02 00:16:41;;;;;;;19.10;10.67;;;1.20;82.20;;;;;;5071202;28;20257;-84
2022/04/02 00:19:08;;;;;;;6.17;2.70;;;1.10;82.40;;;;;;5088202;28;20275;-86
2022/04/02 00:21:37;;;;;;;4.90;2.97;;;1.10;82.60;;;;;;5069731;28;20219;-84
2022/04/02 00:24:04;;;;;;;2.47;1.70;;;1.10;82.80;;;;;;5071189;28;20237;-84
2022/04/02 00:26:31;;;;;;;9.03;5.57;;;1.10;82.60;;;;;;5088998;28;20219;-84
2022/04/02 00:28:57;;;;;;;4.33;2.03;;;1.10;82.80;;;;;;5074856;28;20357;-83
2022/04/02 00:31:29;;;;;;;5.83;2.70;;;1.10;83.10;;;;;;5074531;28;20229;-83
2022/04/02 00:33:56;;;;;;;5.33;2.60;;;1.10;83.20;;;;;;5074555;28;20230;-85
2022/04/02 00:36:23;;;;;;;2.80;2.10;;;1.10;83.00;;;;;;5068807;28;20226;-84
2022/04/02 00:38:50;;;;;;;3.30;2.10;;;1.10;83.00;;;;;;5070382;28;21770;-84
2022/04/02 00:41:16;;;;;;;5.77;2.77;;;1.20;83.30;;;;;;5088185;28;20225;-82
2022/04/02 00:43:56;;;;;;;4.03;2.20;;;1.10;83.30;;;;;;5090595;28;20230;-83
2022/04/02 00:46:23;;;;;;;3.40;2.40;;;1.20;83.60;;;;;;5074566;28;20257;-83
2022/04/02 00:48:51;;;;;;;3.27;1.90;;;1.20;83.30;;;;;;5079358;28;20226;-82
2022/04/02 00:51:18;;;;;;;3.50;1.90;;;1.20;83.70;;;;;;5069933;28;20225;-82
2022/04/02 00:53:49;;;;;;;5.60;2.33;;;1.30;83.90;;;;;;5071278;28;20221;-82
2022/04/02 00:56:16;;;;;;;4.00;2.30;;;1.20;84.10;;;;;;5070437;28;20942;-82
2022/04/02 00:58:43;;;;;;;4.70;1.77;;;1.20;84.00;;;;;;5069182;28;20227;-82
2022/04/02 01:01:14;;;;;;;2.73;1.77;;;1.20;83.90;;;;;;5073162;28;20228;-82
2022/04/02 01:03:44;;;;;;;4.93;2.17;;;1.20;83.90;;;;;;5071702;28;20219;-82
2022/04/02 01:06:13;;;;;;;3.63;1.87;;;1.20;84.20;;;;;;5075925;28;20219;-82
2022/04/02 01:08:40;;;;;;;2.30;1.70;;;1.30;84.30;;;;;;5089284;28;20226;-82
2022/04/02 01:11:09;;;;;;;4.47;2.00;;;1.30;84.30;;;;;;5072445;28;20282;-81
2022/04/02 01:13:37;;;;;;;3.03;2.00;;;1.30;84.50;;;;;;5066960;28;20223;-84
2022/04/02 01:16:08;;;;;;;3.17;2.23;;;1.30;84.80;;;;;;5077118;28;20224;-85
2022/04/02 01:18:36;;;;;;;2.47;2.00;;;1.30;84.80;;;;;;5071341;28;20731;-85
2022/04/02 01:21:03;;;;;;;2.57;1.77;;;1.30;85.10;;;;;;5071598;28;20217;-83
2022/04/02 01:23:40;;;;;;;3.50;2.10;;;1.30;85.20;;;;;;5069011;28;20230;-85
2022/04/02 01:26:13;;;;;;;4.17;2.23;;;1.30;85.20;;;;;;5070645;28;20236;-84
2022/04/02 01:28:53;;;;;;;3.57;1.70;;;1.30;85.30;;;;;;5080257;28;20260;-84
2022/04/02 01:31:23;;;;;;;2.93;1.97;;;1.30;85.10;;;;;;5080116;28;20233;-83
2022/04/02 01:33:51;;;;;;;3.37;1.50;;;1.30;85.10;;;;;;5074267;28;20302;-83
2022/04/02 01:36:20;;;;;;;4.73;2.00;;;1.30;85.20;;;;;;5074586;28;20235;-84
2022/04/02 01:39:06;;;;;;;4.23;1.90;;;1.30;85.20;;;;;;5075165;28;20221;-83
2022/04/02 01:41:33;;;;;;;3.23;2.23;;;1.30;85.20;;;;;;5077606;28;20236;-83
2022/04/02 01:44:00;;;;;;;5.93;1.90;;;1.30;85.20;;;;;;5070443;28;20221;-82
2022/04/02 01:46:26;;;;;;;3.57;2.10;;;1.30;85.40;;;;;;5075238;28;20225;-83
2022/04/02 01:48:54;;;;;;;3.33;2.20;;;1.20;85.50;;;;;;5080273;28;20248;-84
2022/04/02 01:51:21;;;;;;;3.83;2.17;;;1.20;85.80;;;;;;5070953;28;20255;-83
2022/04/02 01:53:48;;;;;;;3.17;2.07;;;1.20;86.00;;;;;;5088416;28;20308;-83
2022/04/02 01:56:17;;;;;;;2.20;2.00;;;1.20;86.00;;;;;;5071130;28;20638;-84
2022/04/02 01:58:54;;;;;;;4.87;2.10;;;1.30;86.40;;;;;;5077808;28;20225;-83
2022/04/02 02:01:24;;;;;;;5.67;2.40;;;1.20;86.50;;;;;;5073932;28;20917;-83
2022/04/02 02:03:51;;;;;;;3.77;2.70;;;1.20;86.80;;;;;;5077570;28;20304;-83
2022/04/02 02:06:18;;;;;;;3.97;2.27;;;1.20;86.40;;;;;;5071856;28;20223;-84
2022/04/02 02:08:48;;;;;;;5.17;2.50;;;1.20;86.90;;;;;;5071410;28;20230;-82
2022/04/02 02:11:36;;;;;;;3.20;2.40;;;1.20;86.60;;;;;;5085395;28;20230;-83
2022/04/02 02:14:26;;;;;;;4.13;2.90;;;1.20;87.30;;;;;;5079357;28;20592;-82
2022/04/02 02:17:03;;;;;;;3.40;2.37;;;1.20;87.10;;;;;;5080295;28;20713;-83
2022/04/02 02:19:30;;;;;;;4.60;2.60;;;1.20;87.40;;;;;;5073309;28;20285;-84
2022/04/02 02:21:57;;;;;;;3.30;2.47;;;1.20;87.50;;;;;;5073275;28;20226;-82
2022/04/02 02:24:24;;;;;;;6.20;2.60;;;1.20;88.10;;;;;;5090454;28;20221;-84
2022/04/02 02:26:52;;;;;;;6.90;2.73;;;1.10;88.10;;;;;;5090714;28;20450;-83
2022/04/02 02:29:30;;;;;;;3.97;2.67;;;1.10;88.50;;;;;;5079002;28;20317;-82
2022/04/02 02:31:57;;;;;;;6.80;3.00;;;1.10;88.20;;;;;;5078396;28;20228;-83
2022/04/02 02:37:10;;;;;;;4.93;2.70;;;1.10;89.30;;;;;;5074629;28;20219;-82
2022/04/02 02:39:43;;;;;;;4.23;2.63;;;1.10;89.40;;;;;;5075706;28;20699;-86
2022/04/02 02:42:25;;;;;;;5.03;3.27;;;1.10;89.70;;;;;;5075667;28;20229;-85
2022/04/02 02:45:00;;;;;;;4.70;2.70;;;1.00;89.30;;;;;;5076099;28;20224;-84
2022/04/02 02:47:30;;;;;;;3.97;2.83;;;1.00;89.10;;;;;;5086482;28;20231;-84
2022/04/02 02:49:56;;;;;;;5.87;2.83;;;0.90;90.10;;;;;;5072436;28;20751;-85
2022/04/02 02:52:30;;;;;;;5.00;2.90;;;0.90;89.80;;;;;;5077864;28;20290;-86
2022/04/02 02:54:57;;;;;;;5.23;2.40;;;0.90;89.70;;;;;;5076793;28;20240;-84
2022/04/02 02:57:27;;;;;;;4.60;2.83;;;0.90;90.00;;;;;;5074366;28;20230;-83
2022/04/02 02:59:54;;;;;;;3.93;3.03;;;0.90;90.00;;;;;;5081805;28;20567;-86
2022/04/02 03:02:21;;;;;;;4.57;3.10;;;0.90;90.20;;;;;;5072877;28;20217;-85
2022/04/02 03:04:53;;;;;;;4.93;2.53;;;0.80;90.40;;;;;;5075618;28;20239;-84
2022/04/02 03:07:36;;;;;;;3.80;2.67;;;0.90;90.20;;;;;;5085341;28;20641;-85
2022/04/02 03:10:04;;;;;;;5.23;2.67;;;0.80;90.50;;;;;;5073998;28;20852;-83
2022/04/02 03:12:34;;;;;;;4.23;2.60;;;0.90;90.60;;;;;;5081194;28;20281;-84
2022/04/02 03:15:02;;;;;;;4.17;2.57;;;0.80;90.50;;;;;;5076986;28;20275;-83
2022/04/02 03:17:30;;;;;;;4.07;2.50;;;0.90;90.60;;;;;;5079142;28;20233;-83
2022/04/02 03:19:58;;;;;;;3.83;3.10;;;0.90;90.60;;;;;;5081862;28;20227;-83
2022/04/02 03:22:27;;;;;;;4.07;2.60;;;0.90;90.60;;;;;;5068335;28;20217;-84
2022/04/02 03:24:55;;;;;;;4.67;2.90;;;0.90;90.60;;;;;;5083271;28;20225;-84
2022/04/02 03:27:21;;;;;;;5.00;2.87;;;1.00;90.50;;;;;;5076698;28;20222;-83
2022/04/02 03:29:52;;;;;;;5.07;2.60;;;0.90;90.50;;;;;;5081751;28;20265;-84
2022/04/02 03:32:19;;;;;;;4.40;2.83;;;0.90;90.60;;;;;;5077016;28;20295;-84
2022/04/02 03:34:46;;;;;;;5.47;3.10;;;0.90;90.80;;;;;;5074448;28;20227;-85
2022/04/02 03:37:14;;;;;;;5.13;2.97;;;0.90;90.90;;;;;;5075300;28;20735;-85
2022/04/02 03:39:41;;;;;;;4.10;2.70;;;0.90;90.70;;;;;;5099130;28;20219;-84
2022/04/02 03:42:10;;;;;;;4.67;2.57;;;0.80;90.50;;;;;;5071229;28;20223;-84
2022/04/02 03:44:37;;;;;;;4.63;2.97;;;0.80;90.70;;;;;;5074732;28;20227;-84
2022/04/02 03:47:12;;;;;;;3.80;2.87;;;0.70;90.70;;;;;;5071509;28;20692;-85
2022/04/02 03:49:47;;;;;;;4.13;2.63;;;0.70;90.80;;;;;;5075736;28;20851;-85
2022/04/02 03:52:19;;;;;;;6.30;3.23;;;0.60;90.70;;;;;;5072162;28;20759;-84
2022/04/02 03:54:50;;;;;;;5.00;2.87;;;0.60;90.70;;;;;;5075075;28;20237;-83
2022/04/02 03:57:18;;;;;;;3.63;3.17;;;0.60;90.70;;;;;;5070294;28;20226;-84
2022/04/02 03:59:46;;;;;;;5.53;2.50;;;0.60;90.90;;;;;;5077278;28;20313;-84
2022/04/02 04:02:18;;;;;;;3.60;2.67;;;0.50;90.90;;;;;;5072806;28;20211;-84
2022/04/02 04:04:46;;;;;;;4.57;2.67;;;0.50;90.90;;;;;;5069921;28;20231;-84
2022/04/02 04:07:14;;;;;;;4.73;2.63;;;0.50;91.00;;;;;;5076413;28;20730;-82
2022/04/02 04:09:42;;;;;;;3.97;2.67;;;0.40;90.80;;;;;;5070051;28;20314;-83
2022/04/02 04:12:13;;;;;;;5.90;2.70;;;0.40;91.00;;;;;;5075945;28;20264;-82
2022/04/02 04:14:43;;;;;;;4.00;2.53;;;0.30;90.80;;;;;;5085568;28;20842;-82
2022/04/02 04:17:11;;;;;;;3.83;2.63;;;0.30;91.00;;;;;;5081941;28;20224;-83
2022/04/02 04:19:40;;;;;;;4.50;2.60;;;0.30;90.90;;;;;;5074052;28;20303;-83
2022/04/02 04:22:07;;;;;;;5.00;2.47;;;0.30;91.10;;;;;;5077433;28;20220;-84
2022/04/02 04:24:34;;;;;;;7.90;2.90;;;0.20;91.00;;;;;;5071866;28;20220;-83
2022/04/02 04:27:02;;;;;;;4.40;2.63;;;0.20;91.20;;;;;;5075019;28;20224;-83
2022/04/02 04:29:30;;;;;;;7.00;2.77;;;0.20;91.00;;;;;;5069854;28;20684;-84
2022/04/02 04:31:56;;;;;;;3.30;2.50;;;0.10;91.00;;;;;;5073937;28;20257;-84
2022/04/02 04:34:23;;;;;;;4.43;2.33;;;0.10;91.20;;;;;;5071243;28;20220;-85
2022/04/02 04:36:51;;;;;;;5.67;2.93;;;0.10;91.10;;;;;;5078284;28;20718;-80
2022/04/02 04:39:18;;;;;;;4.23;2.53;;;0.10;91.20;;;;;;5088043;28;20225;-79
2022/04/02 04:41:47;;;;;;;4.07;2.50;;;0.00;91.20;;;;;;5068117;28;20254;-80
2022/04/02 04:44:14;;;;;;;4.97;2.50;;;0.00;91.30;;;;;;5067427;28;20307;-78
2022/04/02 04:46:43;;;;;;;3.50;2.53;;;0.00;91.50;;;;;;5082932;28;20231;-79
2022/04/02 04:49:12;;;;;;;8.67;3.00;;;0.00;91.50;;;;;;5065186;28;20219;-79
2022/04/02 04:51:42;;;;;;;6.13;2.97;;;-0.10;91.50;;;;;;5083375;28;20247;-79
2022/04/02 04:54:11;;;;;;;5.13;2.50;;;-0.10;91.50;;;;;;5062718;28;20220;-79
2022/04/02 04:56:41;;;;;;;4.50;2.73;;;-0.10;91.50;;;;;;5070327;28;20329;-79
2022/04/02 04:59:10;;;;;;;5.00;2.33;;;-0.10;91.70;;;;;;5061382;28;21781;-78
2022/04/02 05:01:37;;;;;;;4.17;2.60;;;-0.20;91.40;;;;;;5069112;28;20339;-78
2022/04/02 05:04:06;;;;;;;4.90;2.27;;;-0.20;91.40;;;;;;5065942;28;20265;-80
2022/04/02 05:06:37;;;;;;;3.33;2.20;;;-0.20;91.40;;;;;;5089552;28;20821;-79
2022/04/02 05:09:05;;;;;;;3.13;2.50;;;-0.20;91.50;;;;;;5072438;28;20209;-79
2022/04/02 05:11:37;;;;;;;3.63;2.60;;;-0.20;91.30;;;;;;5076283;28;20804;-81
2022/04/02 05:14:07;;;;;;;3.20;2.37;;;-0.20;91.50;;;;;;5088819;28;20662;-78
2022/04/02 05:16:36;;;;;;;21.53;10.10;;;-0.30;91.50;;;;;;5072464;28;20706;-79
2022/04/02 05:19:07;;;;;;;10.53;6.07;;;-0.30;91.40;;;;;;5072959;28;20261;-79
2022/04/02 05:21:35;;;;;;;11.90;6.13;;;-0.30;91.40;;;;;;5073844;28;20389;-79
2022/04/02 05:24:03;;;;;;;6.07;4.10;;;-0.20;91.60;;;;;;5066854;28;20291;-78
2022/04/02 05:26:30;;;;;;;7.50;4.60;;;-0.30;91.50;;;;;;5071584;28;20299;-79
2022/04/02 05:29:10;;;;;;;6.00;4.00;;;-0.30;91.30;;;;;;5077588;28;20219;-79
2022/04/02 05:31:37;;;;;;;5.07;3.20;;;-0.30;91.40;;;;;;5068325;28;20310;-78
2022/04/02 05:34:04;;;;;;;5.87;4.20;;;-0.30;91.40;;;;;;5086009;28;20218;-78
2022/04/02 05:36:31;;;;;;;4.50;3.23;;;-0.20;91.30;;;;;;5086188;28;20698;-78
2022/04/02 05:38:58;;;;;;;4.20;3.47;;;-0.30;91.30;;;;;;5093162;28;20237;-78
2022/04/02 05:41:25;;;;;;;6.67;5.83;;;-0.20;91.30;;;;;;5083743;28;20803;-79
2022/04/02 05:43:52;;;;;;;5.23;3.30;;;-0.20;91.40;;;;;;5067895;28;20222;-78
2022/04/02 05:46:20;;;;;;;3.77;2.50;;;-0.20;91.40;;;;;;5070696;28;20230;-78
2022/04/02 05:48:46;;;;;;;4.73;2.80;;;-0.20;91.30;;;;;;5086256;28;20301;-78
2022/04/02 05:51:13;;;;;;;2.83;2.23;;;-0.10;91.20;;;;;;5081291;28;20231;-78
2022/04/02 05:53:40;;;;;;;3.43;2.20;;;-0.10;91.20;;;;;;5085824;28;20692;-78
2022/04/02 05:56:07;;;;;;;3.17;1.97;;;-0.10;91.20;;;;;;5085198;28;20226;-78
2022/04/02 05:58:37;;;;;;;3.43;2.43;;;0.00;91.20;;;;;;5070243;28;20569;-79
2022/04/02 06:01:04;;;;;;;4.90;2.30;;;0.10;91.30;;;;;;5084564;28;20229;-78
2022/04/02 06:03:33;;;;;;;4.93;2.40;;;0.20;91.20;;;;;;5068329;28;20237;-80
2022/04/02 06:06:00;;;;;;;3.47;1.90;;;0.20;91.10;;;;;;5085317;28;20246;-79
2022/04/02 06:08:26;;;;;;;4.00;2.40;;;0.40;91.00;;;;;;5083709;28;20226;-78
2022/04/02 06:10:53;;;;;;;9.57;8.70;;;0.40;90.90;;;;;;5085633;28;20218;-78
2022/04/02 06:13:20;;;;;;;5.60;3.27;;;0.50;90.80;;;;;;5066576;28;20232;-78
2022/04/02 06:15:47;;;;;;;2.83;2.60;;;0.60;90.80;;;;;;5085516;28;20846;-79
2022/04/02 06:18:17;;;;;;;4.17;2.43;;;0.70;90.60;;;;;;5070192;28;20557;-79
2022/04/02 06:20:46;;;;;;;3.80;2.37;;;0.80;90.70;;;;;;5085492;28;20797;-79
2022/04/02 06:23:13;;;;;;;3.37;2.73;;;0.90;90.50;;;;;;5083608;28;20224;-80
2022/04/02 06:25:40;;;;;;;3.73;2.20;;;1.00;90.40;;;;;;5068810;28;20223;-79
2022/04/02 06:28:07;;;;;;;3.47;2.10;;;1.10;90.30;;;;;;5068543;28;20246;-79
2022/04/02 06:30:34;;;;;;;3.87;2.37;;;1.20;90.10;;;;;;5066963;28;20307;-80
2022/04/02 06:33:01;;;;;;;3.73;1.63;;;1.20;90.00;;;;;;5067665;28;20661;-79
2022/04/02 06:35:29;;;;;;;2.33;1.70;;;1.20;89.50;;;;;;5064447;28;20232;-79
2022/04/02 06:37:58;;;;;;;3.77;1.83;;;1.30;89.80;;;;;;5068699;28;20223;-80
2022/04/02 06:40:26;;;;;;;3.13;2.20;;;1.40;89.90;;;;;;5067798;28;20859;-80
2022/04/02 06:42:53;;;;;;;2.00;1.50;;;1.40;89.50;;;;;;5067383;28;20226;-79
2022/04/02 06:45:33;;;;;;;2.33;1.50;;;1.50;89.20;;;;;;5065256;28;20278;-80
2022/04/02 06:47:59;;;;;;;3.07;1.73;;;1.60;88.90;;;;;;5081219;28;20233;-79
2022/04/02 06:50:28;;;;;;;3.53;1.77;;;1.70;88.50;;;;;;5065833;28;20350;-80
2022/04/02 06:52:54;;;;;;;2.30;1.73;;;1.80;88.00;;;;;;5081153;28;20238;-80
2022/04/02 06:55:22;;;;;;;3.80;1.90;;;1.90;87.60;;;;;;5082683;28;20229;-79
2022/04/02 06:57:53;;;;;;;2.87;1.70;;;2.00;87.40;;;;;;5081012;28;20725;-79
2022/04/02 07:00:20;;;;;;;2.67;1.33;;;2.10;86.40;;;;;;5081263;28;20228;-79
2022/04/02 07:02:47;;;;;;;13.57;2.20;;;2.20;86.90;;;;;;5059977;28;22072;-80
2022/04/02 07:05:15;;;;;;;3.40;1.53;;;2.30;86.30;;;;;;5066753;28;20279;-79
2022/04/02 07:07:42;;;;;;;2.40;1.50;;;2.30;85.80;;;;;;5063638;28;20241;-80
2022/04/02 07:10:10;;;;;;;2.10;1.40;;;2.40;85.80;;;;;;5082565;28;22126;-80
2022/04/02 07:12:38;;;;;;;2.57;1.27;;;2.40;85.60;;;;;;5064085;28;20217;-79
2022/04/02 07:15:07;;;;;;;1.93;1.43;;;2.50;85.60;;;;;;5063759;28;20571;-79
2022/04/02 07:17:34;;;;;;;2.07;1.43;;;2.60;85.10;;;;;;5084204;28;20350;-80
2022/04/02 07:20:02;;;;;;;2.90;1.80;;;2.70;85.50;;;;;;5073812;28;20718;-79
2022/04/02 07:22:29;;;;;;;3.40;1.50;;;2.80;85.00;;;;;;5072057;28;20237;-80
2022/04/02 07:24:56;;;;;;;2.50;1.80;;;2.90;84.40;;;;;;5089724;28;20228;-79
2022/04/02 07:27:29;;;;;;;2.50;1.40;;;2.90;84.00;;;;;;5067464;28;20580;-79
2022/04/02 07:29:58;;;;;;;1.80;1.30;;;3.00;83.70;;;;;;5092039;28;20301;-80
2022/04/02 07:32:25;;;;;;;2.60;1.40;;;3.00;83.10;;;;;;5083927;28;20255;-80
2022/04/02 07:34:52;;;;;;;1.87;1.40;;;3.10;83.50;;;;;;5092615;28;20266;-80
2022/04/02 07:37:31;;;;;;;3.17;1.50;;;3.10;82.20;;;;;;5074729;28;20233;-79
2022/04/02 07:40:07;;;;;;;1.10;1.00;;;3.10;81.50;;;;;;5092144;28;20229;-79
2022/04/02 07:42:38;;;;;;;3.40;1.37;;;3.10;80.50;;;;;;5089564;28;20317;-80
2022/04/02 07:45:08;;;;;;;2.57;1.50;;;3.10;81.00;;;;;;5093114;28;20306;-80
2022/04/02 07:47:37;;;;;;;3.17;1.67;;;3.00;82.00;;;;;;5088387;28;20329;-79
2022/04/02 07:50:06;;;;;;;2.33;1.37;;;3.10;82.50;;;;;;5089249;28;20797;-78
2022/04/02 07:52:33;;;;;;;1.97;1.30;;;3.20;80.50;;;;;;5090335;28;20231;-82
2022/04/02 07:55:02;;;;;;;2.90;1.40;;;3.40;82.80;;;;;;5078740;28;20223;-82
2022/04/02 07:57:38;;;;;;;2.63;1.23;;;3.60;82.10;;;;;;5071481;28;20576;-85
2022/04/02 08:00:10;;;;;;;1.80;1.20;;;3.80;81.50;;;;;;5090946;28;20236;-85
2022/04/02 08:02:42;;;;;;;1.73;1.10;;;4.10;80.30;;;;;;5082609;28;20252;-85
2022/04/02 08:05:14;;;;;;;1.70;1.23;;;4.50;80.30;;;;;;5072789;28;20236;-84
2022/04/02 08:07:44;;;;;;;1.87;1.40;;;4.80;78.70;;;;;;5074340;28;20229;-86
2022/04/02 08:10:14;;;;;;;2.40;1.27;;;5.10;79.50;;;;;;5089132;28;20231;-84
2022/04/02 08:12:45;;;;;;;1.57;1.20;;;5.30;78.30;;;;;;5072158;28;20966;-85
2022/04/02 08:15:17;;;;;;;1.80;1.40;;;5.50;77.50;;;;;;5069072;28;20222;-85
2022/04/02 08:17:45;;;;;;;1.77;1.50;;;5.80;77.60;;;;;;5071577;28;20239;-86
2022/04/02 08:20:15;;;;;;;2.63;1.87;;;6.20;77.30;;;;;;5071499;28;20280;-85
2022/04/02 08:22:42;;;;;;;1.57;1.07;;;6.40;74.90;;;;;;5071740;28;20650;-85
2022/04/02 08:25:09;;;;;;;2.33;2.13;;;6.60;73.20;;;;;;5090621;28;20318;-85
2022/04/02 08:27:45;;;;;;;2.00;1.20;;;6.70;73.30;;;;;;5073069;28;20709;-85
2022/04/02 08:30:16;;;;;;;2.23;1.37;;;6.90;71.50;;;;;;5066768;28;20291;-84
2022/04/02 08:32:59;;;;;;;2.10;1.30;;;7.00;70.60;;;;;;5088061;28;20227;-85
2022/04/02 08:35:33;;;;;;;2.70;1.87;;;7.10;70.10;;;;;;5066378;28;20224;-85
2022/04/02 08:38:10;;;;;;;2.20;1.30;;;7.20;71.90;;;;;;5073859;28;21182;-86
2022/04/02 08:41:14;;;;;;;1.93;1.27;;;7.20;68.10;;;;;;5088409;28;20234;-85
2022/04/02 08:44:21;;;;;;;2.57;1.30;;;7.40;69.30;;;;;;5086156;28;20234;-85
2022/04/02 08:47:10;;;;;;;1.77;1.10;;;7.40;65.30;;;;;;5070719;28;20221;-85
2022/04/02 08:49:40;;;;;;;1.83;1.20;;;7.50;66.40;;;;;;5087725;28;20296;-85
2022/04/02 08:52:22;;;;;;;1.73;1.30;;;7.50;64.80;;;;;;5075410;28;20252;-84
2022/04/02 08:55:13;;;;;;;1.77;1.30;;;7.50;66.30;;;;;;5073176;28;20222;-85
2022/04/02 08:58:09;;;;;;;2.10;1.10;;;7.50;66.10;;;;;;5084389;28;20232;-85
2022/04/02 09:00:41;;;;;;;2.70;1.00;;;7.60;65.90;;;;;;5087512;28;20291;-85
2022/04/02 09:03:43;;;;;;;2.90;1.07;;;7.70;65.30;;;;;;5075007;28;20609;-85
2022/04/02 09:06:43;;;;;;;1.27;0.90;;;7.80;62.80;;;;;;5070848;28;20226;-85
2022/04/02 09:09:20;;;;;;;2.23;1.07;;;7.90;63.90;;;;;;5070566;28;20939;-85
2022/04/02 09:12:03;;;;;;;1.43;1.20;;;8.00;65.20;;;;;;5088066;28;20227;-85
2022/04/02 09:15:00;;;;;;;2.77;1.10;;;8.30;66.10;;;;;;5067280;28;20232;-85
2022/04/02 09:17:48;;;;;;;2.80;1.20;;;8.60;64.20;;;;;;5086969;28;20310;-84
2022/04/02 09:20:44;;;;;;;1.47;1.33;;;9.00;62.80;;;;;;5063164;28;20273;-84
2022/04/02 09:23:15;;;;;;;1.40;1.03;;;9.10;61.60;;;;;;5069049;28;20291;-85
2022/04/02 09:26:40;;;;;;;2.07;1.20;;;9.10;62.70;;;;;;5070656;28;20296;-84
2022/04/02 09:29:17;;;;;;;2.37;1.30;;;9.20;60.70;;;;;;4985536;28;20255;-85
2022/04/02 09:32:19;;;;;;;1.73;1.20;;;9.20;60.00;;;;;;4968632;28;20231;-85
2022/04/02 09:35:21;;;;;;;1.47;1.10;;;9.30;60.20;;;;;;5051258;28;20250;-85
2022/04/02 09:38:26;;;;;;;2.43;1.13;;;9.30;57.00;;;;;;5083762;28;20595;-85
2022/04/02 09:41:01;;;;;;;2.20;1.20;;;9.20;56.90;;;;;;5051625;28;20228;-85
2022/04/02 09:43:31;;;;;;;1.47;1.00;;;9.10;58.10;;;;;;5063233;28;21045;-84
2022/04/02 09:46:32;;;;;;;1.83;1.00;;;8.90;57.00;;;;;;5069503;28;20334;-85
2022/04/02 09:49:00;;;;;;;1.73;1.00;;;8.70;57.10;;;;;;5085739;28;20224;-84
2022/04/02 09:51:32;;;;;;;1.70;1.10;;;8.50;55.30;;;;;;5081102;28;20231;-84
2022/04/02 09:54:03;;;;;;;1.77;1.07;;;8.40;55.80;;;;;;5083222;28;20233;-84
2022/04/02 09:56:35;;;;;;;3.63;2.60;;;8.20;55.30;;;;;;5063450;28;20239;-84
2022/04/02 09:59:06;;;;;;;1.47;1.10;;;8.10;57.00;;;;;;5083356;28;20247;-85
2022/04/02 10:01:40;;;;;;;3.10;2.00;;;8.00;57.20;;;;;;5079023;28;20226;-85
2022/04/02 10:04:29;;;;;;;3.50;1.10;;;8.00;57.00;;;;;;5069428;28;20219;-85
2022/04/02 10:06:58;;;;;;;0.90;0.90;;;8.00;56.40;;;;;;5067385;28;20240;-85
2022/04/02 10:09:34;;;;;;;2.50;1.20;;;8.10;56.70;;;;;;5067130;28;20838;-84
2022/04/02 10:12:03;;;;;;;2.03;1.10;;;8.20;55.80;;;;;;5065761;28;20220;-83
2022/04/02 10:14:33;;;;;;;1.97;1.10;;;8.20;57.00;;;;;;5068395;28;20231;-84
2022/04/02 10:17:04;;;;;;;1.60;0.93;;;8.10;55.00;;;;;;5085677;28;20616;-85
2022/04/02 10:19:33;;;;;;;2.43;1.20;;;8.00;54.40;;;;;;5082093;28;20242;-84
2022/04/02 10:22:03;;;;;;;2.27;1.27;;;8.00;56.80;;;;;;5069792;28;20311;-86
2022/04/02 10:24:36;;;;;;;1.07;0.90;;;8.10;56.20;;;;;;5080172;28;20240;-83
2022/04/02 10:27:04;;;;;;;1.50;1.10;;;8.10;54.80;;;;;;5090344;28;20731;-84
2022/04/02 10:29:50;;;;;;;2.70;1.03;;;8.10;54.80;;;;;;5087190;28;20240;-83
2022/04/02 10:32:29;;;;;;;1.20;1.03;;;8.00;53.30;;;;;;5072039;28;20248;-84
2022/04/02 10:34:58;;;;;;;1.80;1.00;;;8.00;54.70;;;;;;5071503;28;20245;-83
2022/04/02 10:37:32;;;;;;;3.60;1.27;;;7.90;55.50;;;;;;5065474;28;20261;-84
2022/04/02 10:40:03;;;;;;;1.30;1.07;;;7.90;56.20;;;;;;5079459;28;20929;-84
2022/04/02 10:42:34;;;;;;;1.87;1.10;;;7.90;54.70;;;;;;5066159;28;20254;-84
2022/04/02 10:45:04;;;;;;;1.83;1.10;;;7.80;54.20;;;;;;5067034;28;20211;-84
2022/04/02 10:47:31;;;;;;;3.13;1.13;;;7.70;54.20;;;;;;5082408;28;20237;-84
2022/04/02 10:50:04;;;;;;;1.60;0.90;;;7.60;54.90;;;;;;5085252;28;20228;-84
2022/04/02 10:52:32;;;;;;;2.30;1.10;;;7.50;55.50;;;;;;5085581;28;20252;-85
2022/04/02 10:55:00;;;;;;;2.57;1.30;;;7.50;54.60;;;;;;5089390;28;20244;-85
2022/04/02 10:57:29;;;;;;;1.40;1.30;;;7.40;54.40;;;;;;5071932;28;20228;-85
2022/04/02 11:00:01;;;;;;;2.47;1.27;;;7.30;55.20;;;;;;5090726;28;20275;-84
2022/04/02 11:02:39;;;;;;;1.57;1.10;;;7.10;55.40;;;;;;5071791;28;20245;-85
2022/04/02 11:05:07;;;;;;;1.83;1.00;;;7.00;56.00;;;;;;5072440;28;20225;-84
2022/04/02 11:07:37;;;;;;;1.70;1.20;;;6.80;54.80;;;;;;5072867;28;20243;-85
2022/04/02 11:10:06;;;;;;;1.70;1.10;;;6.70;54.90;;;;;;5073271;28;20699;-85
2022/04/02 11:12:38;;;;;;;2.90;1.20;;;6.50;55.60;;;;;;5071711;28;20243;-84
2022/04/02 11:15:10;;;;;;;1.50;1.17;;;6.50;54.50;;;;;;5090598;28;20247;-85
2022/04/02 11:17:40;;;;;;;1.80;1.10;;;6.50;56.10;;;;;;5090617;28;20237;-84
2022/04/02 11:20:10;;;;;;;3.70;1.70;;;6.50;56.70;;;;;;5090017;28;20257;-85
2022/04/02 11:22:49;;;;;;;1.67;1.07;;;6.60;57.00;;;;;;5090554;28;20605;-85
2022/04/02 11:25:24;;;;;;;1.27;1.10;;;6.60;56.90;;;;;;5085790;28;20230;-85
2022/04/02 11:27:54;;;;;;;1.67;1.23;;;6.60;57.10;;;;;;5088529;28;20237;-85
2022/04/02 11:30:22;;;;;;;1.80;1.30;;;6.50;57.50;;;;;;5088563;28;20222;-84
2022/04/02 11:32:50;;;;;;;2.13;1.20;;;6.60;57.80;;;;;;5070382;28;20227;-85
2022/04/02 11:35:22;;;;;;;2.50;1.23;;;6.50;57.60;;;;;;5071010;28;20218;-85
2022/04/02 11:38:02;;;;;;;2.23;1.43;;;6.60;58.40;;;;;;5076405;28;20284;-85
2022/04/02 11:40:32;;;;;;;0.97;0.80;;;6.80;58.20;;;;;;5085701;28;20227;-84
2022/04/02 11:43:03;;;;;;;1.70;1.30;;;7.00;56.60;;;;;;5084265;28;20234;-85
2022/04/02 11:45:30;;;;;;;2.27;1.10;;;7.20;56.10;;;;;;5075569;28;20704;-85
2022/04/02 11:48:07;;;;;;;2.67;1.40;;;7.40;54.80;;;;;;5081265;28;20274;-84
2022/04/02 11:50:38;;;;;;;2.93;1.50;;;7.60;54.10;;;;;;5074285;28;20237;-84
2022/04/02 11:53:05;;;;;;;2.07;1.27;;;7.70;53.80;;;;;;5072136;28;20228;-85
2022/04/02 11:55:36;;;;;;;1.83;1.20;;;7.90;55.20;;;;;;5074230;28;20315;-86
2022/04/02 11:58:05;;;;;;;2.07;1.20;;;8.00;54.40;;;;;;5081804;28;20732;-85
2022/04/02 12:00:34;;;;;;;2.27;1.10;;;8.20;55.50;;;;;;5074002;28;20236;-86
2022/04/02 12:03:01;;;;;;;1.10;0.90;;;8.40;55.10;;;;;;5075358;28;20226;-85
2022/04/02 12:05:41;;;;;;;3.13;2.60;;;8.60;54.20;;;;;;5073769;28;20282;-84
2022/04/02 12:08:08;;;;;;;1.47;1.13;;;8.80;53.30;;;;;;5078363;28;20292;-84
2022/04/02 12:10:46;;;;;;;3.60;2.47;;;9.00;52.60;;;;;;5069979;28;20233;-84
2022/04/02 12:13:13;;;;;;;6.13;4.10;;;9.10;51.60;;;;;;5088292;28;20230;-85
2022/04/02 12:15:41;;;;;;;1.50;1.40;;;9.20;50.30;;;;;;5089014;28;20247;-84
2022/04/02 12:18:09;;;;;;;0.80;0.80;;;9.30;50.30;;;;;;5067763;28;20337;-85
2022/04/02 12:20:37;;;;;;;10.90;7.60;;;9.20;50.20;;;;;;5070321;28;20864;-85
2022/04/02 12:23:11;;;;;;;2.60;1.50;;;9.20;48.30;;;;;;5088795;28;20237;-85
2022/04/02 12:25:41;;;;;;;1.97;1.20;;;9.00;48.50;;;;;;5086059;28;20233;-85
2022/04/02 12:28:17;;;;;;;1.20;1.10;;;8.80;49.70;;;;;;5088505;28;20230;-85
2022/04/02 12:30:48;;;;;;;1.10;1.00;;;8.70;50.00;;;;;;5086536;28;20240;-84
2022/04/02 12:33:18;;;;;;;1.60;1.30;;;8.70;51.60;;;;;;5069925;28;20601;-85
2022/04/02 12:35:47;;;;;;;6.13;4.37;;;8.80;51.30;;;;;;5069289;28;20776;-85
2022/04/02 12:38:27;;;;;;;1.87;1.00;;;8.80;50.00;;;;;;5085932;28;20234;-84
2022/04/02 12:40:57;;;;;;;1.87;1.40;;;8.80;48.10;;;;;;5076142;28;20235;-86
2022/04/02 12:43:31;;;;;;;5.53;4.50;;;8.80;48.60;;;;;;5086246;28;20256;-85
2022/04/02 12:45:59;;;;;;;1.63;0.80;;;8.70;50.40;;;;;;5073310;28;20233;-85
2022/04/02 12:48:27;;;;;;;1.40;0.73;;;8.70;49.40;;;;;;5068909;28;20619;-85
2022/04/02 12:50:57;;;;;;;1.40;1.00;;;8.80;49.40;;;;;;5071278;28;20733;-85
2022/04/02 12:53:32;;;;;;;1.67;0.93;;;8.90;50.00;;;;;;5087725;28;20223;-85
2022/04/02 12:56:02;;;;;;;1.73;1.00;;;8.90;47.10;;;;;;5072268;28;20271;-85
2022/04/02 12:58:35;;;;;;;0.80;0.80;;;8.90;47.60;;;;;;5085484;28;20313;-84
2022/04/02 13:01:10;;;;;;;0.93;0.80;;;8.90;48.70;;;;;;5068527;28;20221;-85
2022/04/02 13:03:43;;;;;;;1.20;0.97;;;9.00;49.50;;;;;;5086951;28;20314;-85
2022/04/02 13:06:17;;;;;;;1.37;0.97;;;9.00;49.70;;;;;;5068220;28;20248;-84
2022/04/02 13:08:55;;;;;;;1.33;0.93;;;9.10;50.20;;;;;;5072955;28;20230;-86
2022/04/02 13:11:59;;;;;;;1.47;0.80;;;9.10;49.70;;;;;;5066826;28;20418;-85
2022/04/02 13:14:27;;;;;;;2.03;1.10;;;9.10;49.20;;;;;;5000925;28;20242;-85
2022/04/02 13:16:55;;;;;;;1.23;0.90;;;9.00;50.30;;;;;;5003677;28;20236;-85
2022/04/02 13:22:12;;;;;;;1.27;0.93;;;8.90;50.30;;;;;;5086534;28;20213;-85
2022/04/02 13:24:54;;;;;;;2.87;1.00;;;8.80;50.20;;;;;;5086659;28;20227;-85